sensor_id;sensor_type;location;lat;lon;timestamp;temperature;humidity
3770;DHT22;1900;48.890;9.190;2022-11-02T00:01:41;17.00;61.00
3770;DHT22;1900;48.890;9.190;2022-11-02T00:04:08;17.00;60.90
3770;DHT22;1900;48.890;9.190;2022-11-02T00:06:33;17.00;61.00
3770;DHT22;1900;48.890;9.190;2022-11-02T00:08:59;16.90;60.80
3770;DHT22;1900;48.890;9.190;2022-11-02T00:11:25;16.90;60.80
3770;DHT22;1900;48.890;9.190;2022-11-02T00:13:50;16.90;60.80
3770;DHT22;1900;48.890;9.190;2022-11-02T00:16:17;16.90;60.80
3770;DHT22;1900;48.890;9.190;2022-11-02T00:18:45;16.80;60.70
3770;DHT22;1900;48.890;9.190;2022-11-02T00:21:12;16.80;60.60
3770;DHT22;1900;48.890;9.190;2022-11-02T00:23:40;16.80;60.60
3770;DHT22;1900;48.890;9.190;2022-11-02T00:26:06;16.80;60.70
3770;DHT22;1900;48.890;9.190;2022-11-02T00:28:32;16.70;60.60
3770;DHT22;1900;48.890;9.190;2022-11-02T00:30:57;16.70;60.50
3770;DHT22;1900;48.890;9.190;2022-11-02T00:33:25;16.70;60.50
3770;DHT22;1900;48.890;9.190;2022-11-02T00:35:52;16.70;60.50
3770;DHT22;1900;48.890;9.190;2022-11-02T00:38:18;16.60;60.50
3770;DHT22;1900;48.890;9.190;2022-11-02T00:40:44;16.60;60.40
3770;DHT22;1900;48.890;9.190;2022-11-02T00:43:10;16.60;60.40
3770;DHT22;1900;48.890;9.190;2022-11-02T00:45:36;16.60;60.50
3770;DHT22;1900;48.890;9.190;2022-11-02T00:48:02;16.50;60.40
3770;DHT22;1900;48.890;9.190;2022-11-02T00:50:28;16.50;60.40
3770;DHT22;1900;48.890;9.190;2022-11-02T00:52:54;16.50;59.90
3770;DHT22;1900;48.890;9.190;2022-11-02T00:55:21;16.50;60.40
3770;DHT22;1900;48.890;9.190;2022-11-02T00:57:47;16.40;60.30
3770;DHT22;1900;48.890;9.190;2022-11-02T01:00:14;16.40;60.30
3770;DHT22;1900;48.890;9.190;2022-11-02T01:02:40;16.40;60.30
3770;DHT22;1900;48.890;9.190;2022-11-02T01:05:08;16.30;60.20
3770;DHT22;1900;48.890;9.190;2022-11-02T01:07:34;16.30;60.30
3770;DHT22;1900;48.890;9.190;2022-11-02T01:10:00;16.30;60.30
3770;DHT22;1900;48.890;9.190;2022-11-02T01:12:26;16.30;60.30
3770;DHT22;1900;48.890;9.190;2022-11-02T01:14:51;16.30;60.30
3770;DHT22;1900;48.890;9.190;2022-11-02T01:17:18;16.20;60.20
3770;DHT22;1900;48.890;9.190;2022-11-02T01:19:43;16.20;60.20
3770;DHT22;1900;48.890;9.190;2022-11-02T01:22:09;16.20;60.20
3770;DHT22;1900;48.890;9.190;2022-11-02T01:24:35;16.20;60.20
3770;DHT22;1900;48.890;9.190;2022-11-02T01:27:01;16.20;60.30
3770;DHT22;1900;48.890;9.190;2022-11-02T01:29:27;16.10;60.20
3770;DHT22;1900;48.890;9.190;2022-11-02T01:31:53;16.10;60.20
3770;DHT22;1900;48.890;9.190;2022-11-02T01:34:21;16.10;60.10
3770;DHT22;1900;48.890;9.190;2022-11-02T01:36:47;16.00;60.10
3770;DHT22;1900;48.890;9.190;2022-11-02T01:39:14;16.00;60.10
3770;DHT22;1900;48.890;9.190;2022-11-02T01:41:40;16.00;60.10
3770;DHT22;1900;48.890;9.190;2022-11-02T01:46:53;16.00;60.20
3770;DHT22;1900;48.890;9.190;2022-11-02T01:49:20;15.90;60.10
3770;DHT22;1900;48.890;9.190;2022-11-02T01:52:08;15.90;60.10
3770;DHT22;1900;48.890;9.190;2022-11-02T01:54:50;15.90;60.30
3770;DHT22;1900;48.890;9.190;2022-11-02T01:57:19;15.90;60.40
3770;DHT22;1900;48.890;9.190;2022-11-02T02:00:08;15.90;60.40
3770;DHT22;1900;48.890;9.190;2022-11-02T02:05:55;15.80;60.50
3770;DHT22;1900;48.890;9.190;2022-11-02T02:08:24;15.80;60.10
3770;DHT22;1900;48.890;9.190;2022-11-02T02:10:55;15.80;60.50
3770;DHT22;1900;48.890;9.190;2022-11-02T02:13:20;15.80;60.50
3770;DHT22;1900;48.890;9.190;2022-11-02T02:18:40;15.80;60.60
3770;DHT22;1900;48.890;9.190;2022-11-02T02:29:13;15.80;60.60
3770;DHT22;1900;48.890;9.190;2022-11-02T02:31:52;15.70;60.60
3770;DHT22;1900;48.890;9.190;2022-11-02T02:34:36;15.80;60.80
3770;DHT22;1900;48.890;9.190;2022-11-02T02:37:10;15.70;60.70
3770;DHT22;1900;48.890;9.190;2022-11-02T02:40:00;15.80;61.50
3770;DHT22;1900;48.890;9.190;2022-11-02T02:42:56;15.70;60.80
3770;DHT22;1900;48.890;9.190;2022-11-02T02:48:06;15.70;60.80
3770;DHT22;1900;48.890;9.190;2022-11-02T02:50:39;15.70;60.80
3770;DHT22;1900;48.890;9.190;2022-11-02T02:53:09;15.70;60.70
3770;DHT22;1900;48.890;9.190;2022-11-02T02:55:40;15.70;60.70
3770;DHT22;1900;48.890;9.190;2022-11-02T02:58:15;15.70;60.70
3770;DHT22;1900;48.890;9.190;2022-11-02T03:00:43;15.70;60.80
3770;DHT22;1900;48.890;9.190;2022-11-02T03:03:18;15.70;60.80
3770;DHT22;1900;48.890;9.190;2022-11-02T03:08:26;15.70;60.80
3770;DHT22;1900;48.890;9.190;2022-11-02T03:11:04;15.70;60.80
3770;DHT22;1900;48.890;9.190;2022-11-02T03:22:05;15.70;60.80
3770;DHT22;1900;48.890;9.190;2022-11-02T03:27:52;15.70;60.90
3770;DHT22;1900;48.890;9.190;2022-11-02T03:30:22;15.70;60.90
3770;DHT22;1900;48.890;9.190;2022-11-02T03:33:20;15.70;61.00
3770;DHT22;1900;48.890;9.190;2022-11-02T03:41:18;15.70;61.10
3770;DHT22;1900;48.890;9.190;2022-11-02T03:43:46;15.70;61.10
3770;DHT22;1900;48.890;9.190;2022-11-02T03:46:14;15.70;61.10
3770;DHT22;1900;48.890;9.190;2022-11-02T03:48:46;15.70;61.10
3770;DHT22;1900;48.890;9.190;2022-11-02T03:51:18;15.70;61.10
3770;DHT22;1900;48.890;9.190;2022-11-02T03:53:52;15.70;61.10
3770;DHT22;1900;48.890;9.190;2022-11-02T03:56:41;15.70;61.10
3770;DHT22;1900;48.890;9.190;2022-11-02T03:59:08;15.80;61.20
3770;DHT22;1900;48.890;9.190;2022-11-02T04:01:40;15.80;61.20
3770;DHT22;1900;48.890;9.190;2022-11-02T04:04:07;15.80;61.20
3770;DHT22;1900;48.890;9.190;2022-11-02T04:06:33;15.80;61.10
3770;DHT22;1900;48.890;9.190;2022-11-02T04:09:00;15.80;61.10
3770;DHT22;1900;48.890;9.190;2022-11-02T04:11:26;15.80;61.10
3770;DHT22;1900;48.890;9.190;2022-11-02T04:14:13;15.80;61.10
3770;DHT22;1900;48.890;9.190;2022-11-02T04:16:58;15.70;61.00
3770;DHT22;1900;48.890;9.190;2022-11-02T04:19:46;15.70;61.10
3770;DHT22;1900;48.890;9.190;2022-11-02T04:22:12;15.70;61.20
3770;DHT22;1900;48.890;9.190;2022-11-02T04:25:04;15.80;61.30
3770;DHT22;1900;48.890;9.190;2022-11-02T04:28:11;15.80;61.30
3770;DHT22;1900;48.890;9.190;2022-11-02T04:30:57;15.80;61.30
3770;DHT22;1900;48.890;9.190;2022-11-02T04:33:30;15.80;61.40
3770;DHT22;1900;48.890;9.190;2022-11-02T04:36:06;15.80;61.40
3770;DHT22;1900;48.890;9.190;2022-11-02T04:38:32;15.80;61.50
3770;DHT22;1900;48.890;9.190;2022-11-02T04:41:10;15.80;61.50
3770;DHT22;1900;48.890;9.190;2022-11-02T04:43:56;15.80;61.50
3770;DHT22;1900;48.890;9.190;2022-11-02T04:46:24;15.80;61.40
3770;DHT22;1900;48.890;9.190;2022-11-02T04:48:50;15.80;61.50
3770;DHT22;1900;48.890;9.190;2022-11-02T04:51:18;15.90;61.50
3770;DHT22;1900;48.890;9.190;2022-11-02T04:53:48;15.90;61.50
3770;DHT22;1900;48.890;9.190;2022-11-02T04:56:15;15.90;61.50
3770;DHT22;1900;48.890;9.190;2022-11-02T04:58:41;15.90;61.50
3770;DHT22;1900;48.890;9.190;2022-11-02T05:01:12;15.90;61.50
3770;DHT22;1900;48.890;9.190;2022-11-02T05:03:38;15.90;61.60
3770;DHT22;1900;48.890;9.190;2022-11-02T05:06:05;15.90;61.60
3770;DHT22;1900;48.890;9.190;2022-11-02T05:08:31;15.90;61.50
3770;DHT22;1900;48.890;9.190;2022-11-02T05:10:57;15.90;61.50
3770;DHT22;1900;48.890;9.190;2022-11-02T05:13:25;15.90;61.50
3770;DHT22;1900;48.890;9.190;2022-11-02T05:15:56;16.00;61.60
3770;DHT22;1900;48.890;9.190;2022-11-02T05:18:23;16.00;61.60
3770;DHT22;1900;48.890;9.190;2022-11-02T05:20:53;16.00;61.60
3770;DHT22;1900;48.890;9.190;2022-11-02T05:23:23;16.00;61.60
3770;DHT22;1900;48.890;9.190;2022-11-02T05:26:00;16.00;61.60
3770;DHT22;1900;48.890;9.190;2022-11-02T05:28:28;16.00;61.60
3770;DHT22;1900;48.890;9.190;2022-11-02T05:30:57;16.00;61.60
3770;DHT22;1900;48.890;9.190;2022-11-02T05:33:23;16.00;61.60
3770;DHT22;1900;48.890;9.190;2022-11-02T05:35:49;16.00;61.60
3770;DHT22;1900;48.890;9.190;2022-11-02T05:38:16;16.00;61.60
3770;DHT22;1900;48.890;9.190;2022-11-02T05:40:43;16.00;61.60
3770;DHT22;1900;48.890;9.190;2022-11-02T05:43:10;16.00;62.30
3770;DHT22;1900;48.890;9.190;2022-11-02T05:45:36;16.10;61.70
3770;DHT22;1900;48.890;9.190;2022-11-02T05:48:03;16.10;61.80
3770;DHT22;1900;48.890;9.190;2022-11-02T05:50:31;16.10;61.70
3770;DHT22;1900;48.890;9.190;2022-11-02T05:52:59;16.10;61.70
3770;DHT22;1900;48.890;9.190;2022-11-02T05:55:25;16.10;61.70
3770;DHT22;1900;48.890;9.190;2022-11-02T05:57:52;16.10;61.70
3770;DHT22;1900;48.890;9.190;2022-11-02T06:00:18;16.10;61.70
3770;DHT22;1900;48.890;9.190;2022-11-02T06:02:45;16.10;61.70
3770;DHT22;1900;48.890;9.190;2022-11-02T06:05:10;16.10;61.80
3770;DHT22;1900;48.890;9.190;2022-11-02T06:07:36;16.10;61.80
3770;DHT22;1900;48.890;9.190;2022-11-02T06:10:02;16.10;61.90
3770;DHT22;1900;48.890;9.190;2022-11-02T06:12:28;16.20;62.00
3770;DHT22;1900;48.890;9.190;2022-11-02T06:14:53;16.20;62.00
3770;DHT22;1900;48.890;9.190;2022-11-02T06:17:19;16.20;62.00
3770;DHT22;1900;48.890;9.190;2022-11-02T06:19:45;16.20;62.00
3770;DHT22;1900;48.890;9.190;2022-11-02T06:22:10;16.20;62.00
3770;DHT22;1900;48.890;9.190;2022-11-02T06:24:36;16.30;62.20
3770;DHT22;1900;48.890;9.190;2022-11-02T06:27:02;16.30;62.10
3770;DHT22;1900;48.890;9.190;2022-11-02T06:29:27;16.30;62.20
3770;DHT22;1900;48.890;9.190;2022-11-02T06:31:53;16.30;62.20
3770;DHT22;1900;48.890;9.190;2022-11-02T06:34:19;16.30;62.20
3770;DHT22;1900;48.890;9.190;2022-11-02T06:36:45;16.40;62.30
3770;DHT22;1900;48.890;9.190;2022-11-02T06:39:10;16.40;62.30
3770;DHT22;1900;48.890;9.190;2022-11-02T06:41:36;16.40;62.40
3770;DHT22;1900;48.890;9.190;2022-11-02T06:44:02;16.40;62.40
3770;DHT22;1900;48.890;9.190;2022-11-02T06:46:27;16.40;62.40
3770;DHT22;1900;48.890;9.190;2022-11-02T06:48:53;16.50;62.50
3770;DHT22;1900;48.890;9.190;2022-11-02T06:51:19;16.50;62.50
3770;DHT22;1900;48.890;9.190;2022-11-02T06:53:44;16.50;62.50
3770;DHT22;1900;48.890;9.190;2022-11-02T06:56:10;16.50;62.40
3770;DHT22;1900;48.890;9.190;2022-11-02T06:58:37;16.50;62.40
3770;DHT22;1900;48.890;9.190;2022-11-02T07:01:05;16.50;62.50
3770;DHT22;1900;48.890;9.190;2022-11-02T07:03:31;16.60;62.60
3770;DHT22;1900;48.890;9.190;2022-11-02T07:05:57;16.60;62.60
3770;DHT22;1900;48.890;9.190;2022-11-02T07:08:24;16.60;62.70
3770;DHT22;1900;48.890;9.190;2022-11-02T07:10:50;16.60;62.60
3770;DHT22;1900;48.890;9.190;2022-11-02T07:13:16;16.70;62.80
3770;DHT22;1900;48.890;9.190;2022-11-02T07:15:42;16.70;62.80
3770;DHT22;1900;48.890;9.190;2022-11-02T07:18:08;16.70;62.90
3770;DHT22;1900;48.890;9.190;2022-11-02T07:20:34;16.70;62.90
3770;DHT22;1900;48.890;9.190;2022-11-02T07:23:00;16.80;63.00
3770;DHT22;1900;48.890;9.190;2022-11-02T07:25:28;16.80;63.00
3770;DHT22;1900;48.890;9.190;2022-11-02T07:27:56;16.80;62.90
3770;DHT22;1900;48.890;9.190;2022-11-02T07:30:24;16.80;62.90
3770;DHT22;1900;48.890;9.190;2022-11-02T07:32:51;16.90;63.10
3770;DHT22;1900;48.890;9.190;2022-11-02T07:35:19;16.90;63.10
3770;DHT22;1900;48.890;9.190;2022-11-02T07:37:54;16.90;63.10
3770;DHT22;1900;48.890;9.190;2022-11-02T07:40:20;16.90;63.10
3770;DHT22;1900;48.890;9.190;2022-11-02T07:42:46;16.90;63.00
3770;DHT22;1900;48.890;9.190;2022-11-02T07:45:14;16.90;62.90
3770;DHT22;1900;48.890;9.190;2022-11-02T07:47:43;17.00;62.90
3770;DHT22;1900;48.890;9.190;2022-11-02T07:50:10;17.00;63.00
3770;DHT22;1900;48.890;9.190;2022-11-02T07:52:43;17.00;63.00
3770;DHT22;1900;48.890;9.190;2022-11-02T07:55:09;17.00;63.10
3770;DHT22;1900;48.890;9.190;2022-11-02T07:57:34;17.00;63.20
3770;DHT22;1900;48.890;9.190;2022-11-02T08:00:00;17.00;63.20
3770;DHT22;1900;48.890;9.190;2022-11-02T08:02:26;17.00;63.20
3770;DHT22;1900;48.890;9.190;2022-11-02T08:04:51;17.10;63.40
3770;DHT22;1900;48.890;9.190;2022-11-02T08:07:17;17.10;63.40
3770;DHT22;1900;48.890;9.190;2022-11-02T08:09:43;17.10;63.50
3770;DHT22;1900;48.890;9.190;2022-11-02T08:12:08;17.20;63.70
3770;DHT22;1900;48.890;9.190;2022-11-02T08:14:34;17.20;63.70
3770;DHT22;1900;48.890;9.190;2022-11-02T08:17:00;17.20;63.70
3770;DHT22;1900;48.890;9.190;2022-11-02T08:19:25;17.30;63.90
3770;DHT22;1900;48.890;9.190;2022-11-02T08:21:51;17.30;63.90
3770;DHT22;1900;48.890;9.190;2022-11-02T08:24:17;17.40;64.10
3770;DHT22;1900;48.890;9.190;2022-11-02T08:26:42;17.40;64.10
3770;DHT22;1900;48.890;9.190;2022-11-02T08:29:08;17.50;64.20
3770;DHT22;1900;48.890;9.190;2022-11-02T08:31:34;17.50;64.20
3770;DHT22;1900;48.890;9.190;2022-11-02T08:34:00;17.60;64.30
3770;DHT22;1900;48.890;9.190;2022-11-02T08:36:26;17.60;64.30
3770;DHT22;1900;48.890;9.190;2022-11-02T08:38:51;17.60;64.20
3770;DHT22;1900;48.890;9.190;2022-11-02T08:41:17;17.70;64.40
3770;DHT22;1900;48.890;9.190;2022-11-02T08:43:42;17.70;64.40
3770;DHT22;1900;48.890;9.190;2022-11-02T08:46:08;17.80;64.60
3770;DHT22;1900;48.890;9.190;2022-11-02T08:48:35;17.80;64.50
3770;DHT22;1900;48.890;9.190;2022-11-02T08:51:00;17.90;64.70
3770;DHT22;1900;48.890;9.190;2022-11-02T08:53:27;17.90;64.60
3770;DHT22;1900;48.890;9.190;2022-11-02T08:55:56;17.90;64.60
3770;DHT22;1900;48.890;9.190;2022-11-02T08:58:22;18.00;64.60
3770;DHT22;1900;48.890;9.190;2022-11-02T09:00:48;18.00;64.60
3770;DHT22;1900;48.890;9.190;2022-11-02T09:03:16;18.10;64.50
3770;DHT22;1900;48.890;9.190;2022-11-02T09:05:44;18.00;64.40
3770;DHT22;1900;48.890;9.190;2022-11-02T09:08:18;18.10;64.50
3770;DHT22;1900;48.890;9.190;2022-11-02T09:10:48;18.10;64.40
3770;DHT22;1900;48.890;9.190;2022-11-02T09:13:14;18.10;64.30
3770;DHT22;1900;48.890;9.190;2022-11-02T09:15:41;18.10;64.30
3770;DHT22;1900;48.890;9.190;2022-11-02T09:18:07;18.10;64.30
3770;DHT22;1900;48.890;9.190;2022-11-02T09:20:34;18.10;64.40
3770;DHT22;1900;48.890;9.190;2022-11-02T09:23:00;18.20;64.60
3770;DHT22;1900;48.890;9.190;2022-11-02T09:25:26;18.20;64.70
3770;DHT22;1900;48.890;9.190;2022-11-02T09:27:53;18.20;64.80
3770;DHT22;1900;48.890;9.190;2022-11-02T09:30:19;18.30;65.00
3770;DHT22;1900;48.890;9.190;2022-11-02T09:32:55;18.40;65.10
3770;DHT22;1900;48.890;9.190;2022-11-02T09:35:22;18.40;65.10
3770;DHT22;1900;48.890;9.190;2022-11-02T09:37:47;18.40;65.10
3770;DHT22;1900;48.890;9.190;2022-11-02T09:40:21;18.40;65.10
3770;DHT22;1900;48.890;9.190;2022-11-02T09:45:20;18.60;65.40
3770;DHT22;1900;48.890;9.190;2022-11-02T09:50:21;18.70;65.50
3770;DHT22;1900;48.890;9.190;2022-11-02T09:52:55;18.70;65.30
3770;DHT22;1900;48.890;9.190;2022-11-02T09:55:27;18.70;65.10
3770;DHT22;1900;48.890;9.190;2022-11-02T09:58:05;18.70;65.10
3770;DHT22;1900;48.890;9.190;2022-11-02T10:00:34;18.80;65.20
3770;DHT22;1900;48.890;9.190;2022-11-02T10:05:50;18.80;65.30
3770;DHT22;1900;48.890;9.190;2022-11-02T10:16:11;19.00;65.30
3770;DHT22;1900;48.890;9.190;2022-11-02T10:18:41;19.00;65.30
3770;DHT22;1900;48.890;9.190;2022-11-02T10:21:41;19.00;65.30
3770;DHT22;1900;48.890;9.190;2022-11-02T10:24:22;19.10;65.30
3770;DHT22;1900;48.890;9.190;2022-11-02T10:26:48;19.10;65.30
3770;DHT22;1900;48.890;9.190;2022-11-02T10:29:19;19.10;65.30
3770;DHT22;1900;48.890;9.190;2022-11-02T10:31:47;19.10;65.20
3770;DHT22;1900;48.890;9.190;2022-11-02T10:34:26;19.20;65.30
3770;DHT22;1900;48.890;9.190;2022-11-02T10:45:18;19.20;65.00
3770;DHT22;1900;48.890;9.190;2022-11-02T10:53:12;19.30;65.00
3770;DHT22;1900;48.890;9.190;2022-11-02T10:58:16;19.30;65.00
3770;DHT22;1900;48.890;9.190;2022-11-02T11:00:42;19.30;65.10
3770;DHT22;1900;48.890;9.190;2022-11-02T11:03:10;19.40;65.40
3770;DHT22;1900;48.890;9.190;2022-11-02T11:05:57;19.40;65.40
3770;DHT22;1900;48.890;9.190;2022-11-02T11:08:37;19.50;65.50
3770;DHT22;1900;48.890;9.190;2022-11-02T11:11:24;19.60;65.70
3770;DHT22;1900;48.890;9.190;2022-11-02T11:13:56;19.60;65.70
3770;DHT22;1900;48.890;9.190;2022-11-02T11:16:50;19.70;65.80
3770;DHT22;1900;48.890;9.190;2022-11-02T11:21:50;19.80;65.90
3770;DHT22;1900;48.890;9.190;2022-11-02T11:24:22;19.80;65.90
3770;DHT22;1900;48.890;9.190;2022-11-02T11:29:38;20.00;65.40
3770;DHT22;1900;48.890;9.190;2022-11-02T11:32:16;20.00;65.50
3770;DHT22;1900;48.890;9.190;2022-11-02T11:34:43;20.10;65.80
3770;DHT22;1900;48.890;9.190;2022-11-02T11:37:11;20.10;66.00
3770;DHT22;1900;48.890;9.190;2022-11-02T11:39:39;20.30;66.40
3770;DHT22;1900;48.890;9.190;2022-11-02T11:42:15;20.40;66.30
3770;DHT22;1900;48.890;9.190;2022-11-02T11:45:03;20.40;65.90
3770;DHT22;1900;48.890;9.190;2022-11-02T11:47:34;20.50;65.90
3770;DHT22;1900;48.890;9.190;2022-11-02T11:50:21;20.60;66.10
3770;DHT22;1900;48.890;9.190;2022-11-02T11:53:08;20.70;66.60
3770;DHT22;1900;48.890;9.190;2022-11-02T11:55:45;20.90;67.10
3770;DHT22;1900;48.890;9.190;2022-11-02T11:58:22;21.00;66.70
3770;DHT22;1900;48.890;9.190;2022-11-02T12:03:51;21.20;66.80
3770;DHT22;1900;48.890;9.190;2022-11-02T12:06:35;21.40;67.20
3770;DHT22;1900;48.890;9.190;2022-11-02T12:09:20;21.50;66.60
3770;DHT22;1900;48.890;9.190;2022-11-02T12:19:59;22.10;66.90
3770;DHT22;1900;48.890;9.190;2022-11-02T12:23:24;22.20;66.60
3770;DHT22;1900;48.890;9.190;2022-11-02T12:26:04;22.20;66.30
3770;DHT22;1900;48.890;9.190;2022-11-02T12:31:36;22.40;66.40
3770;DHT22;1900;48.890;9.190;2022-11-02T12:37:29;22.50;66.00
3770;DHT22;1900;48.890;9.190;2022-11-02T12:42:30;22.60;66.10
3770;DHT22;1900;48.890;9.190;2022-11-02T12:48:01;22.60;64.90
3770;DHT22;1900;48.890;9.190;2022-11-02T12:50:57;22.60;65.10
3770;DHT22;1900;48.890;9.190;2022-11-02T12:55:57;22.80;65.50
3770;DHT22;1900;48.890;9.190;2022-11-02T12:58:36;22.90;66.00
3770;DHT22;1900;48.890;9.190;2022-11-02T13:01:21;23.00;66.30
3770;DHT22;1900;48.890;9.190;2022-11-02T13:04:07;23.10;65.90
3770;DHT22;1900;48.890;9.190;2022-11-02T13:06:41;23.20;66.80
3770;DHT22;1900;48.890;9.190;2022-11-02T13:09:20;23.40;67.50
3770;DHT22;1900;48.890;9.190;2022-11-02T13:12:05;23.50;66.90
3770;DHT22;1900;48.890;9.190;2022-11-02T13:14:41;23.70;66.80
3770;DHT22;1900;48.890;9.190;2022-11-02T13:20:02;23.80;64.90
3770;DHT22;1900;48.890;9.190;2022-11-02T13:22:34;23.90;65.10
3770;DHT22;1900;48.890;9.190;2022-11-02T13:27:50;24.00;65.60
3770;DHT22;1900;48.890;9.190;2022-11-02T13:30:17;24.10;65.70
3770;DHT22;1900;48.890;9.190;2022-11-02T13:33:22;24.20;65.20
3770;DHT22;1900;48.890;9.190;2022-11-02T13:35:44;24.20;65.00
3770;DHT22;1900;48.890;9.190;2022-11-02T13:40:50;24.40;65.00
3770;DHT22;1900;48.890;9.190;2022-11-02T13:43:28;24.40;63.90
3770;DHT22;1900;48.890;9.190;2022-11-02T13:49:04;24.50;65.60
3770;DHT22;1900;48.890;9.190;2022-11-02T13:51:44;24.70;66.10
3770;DHT22;1900;48.890;9.190;2022-11-02T13:54:20;24.80;66.60
3770;DHT22;1900;48.890;9.190;2022-11-02T13:56:51;24.90;66.90
3770;DHT22;1900;48.890;9.190;2022-11-02T13:59:33;25.10;67.30
3770;DHT22;1900;48.890;9.190;2022-11-02T14:02:04;25.20;66.80
3770;DHT22;1900;48.890;9.190;2022-11-02T14:04:38;25.30;66.80
3770;DHT22;1900;48.890;9.190;2022-11-02T14:07:08;25.30;65.80
3770;DHT22;1900;48.890;9.190;2022-11-02T14:09:41;25.30;65.20
3770;DHT22;1900;48.890;9.190;2022-11-02T14:20:35;24.90;63.10
3770;DHT22;1900;48.890;9.190;2022-11-02T14:25:50;24.60;62.90
3770;DHT22;1900;48.890;9.190;2022-11-02T14:30:46;24.40;62.70
3770;DHT22;1900;48.890;9.190;2022-11-02T14:44:37;23.80;62.40
3770;DHT22;1900;48.890;9.190;2022-11-02T14:49:31;23.60;61.90
3770;DHT22;1900;48.890;9.190;2022-11-02T14:52:02;23.40;61.50
3770;DHT22;1900;48.890;9.190;2022-11-02T14:54:31;23.30;61.30
3770;DHT22;1900;48.890;9.190;2022-11-02T14:57:14;23.10;61.00
3770;DHT22;1900;48.890;9.190;2022-11-02T14:59:47;23.00;61.00
3770;DHT22;1900;48.890;9.190;2022-11-02T15:02:35;22.90;61.10
3770;DHT22;1900;48.890;9.190;2022-11-02T15:05:03;22.80;61.00
3770;DHT22;1900;48.890;9.190;2022-11-02T15:10:00;22.60;61.10
3770;DHT22;1900;48.890;9.190;2022-11-02T15:12:33;22.40;60.80
3770;DHT22;1900;48.890;9.190;2022-11-02T15:27:52;22.00;60.60
3770;DHT22;1900;48.890;9.190;2022-11-02T15:30:20;21.90;60.60
3770;DHT22;1900;48.890;9.190;2022-11-02T15:32:50;21.80;60.50
3770;DHT22;1900;48.890;9.190;2022-11-02T15:35:22;21.70;60.30
3770;DHT22;1900;48.890;9.190;2022-11-02T15:37:57;21.60;60.20
3770;DHT22;1900;48.890;9.190;2022-11-02T15:40:27;21.50;60.10
3770;DHT22;1900;48.890;9.190;2022-11-02T15:43:09;21.50;60.10
3770;DHT22;1900;48.890;9.190;2022-11-02T15:46:11;21.40;60.00
3770;DHT22;1900;48.890;9.190;2022-11-02T15:57:21;21.10;60.00
3770;DHT22;1900;48.890;9.190;2022-11-02T16:00:00;20.90;59.70
3770;DHT22;1900;48.890;9.190;2022-11-02T16:02:37;20.90;59.80
3770;DHT22;1900;48.890;9.190;2022-11-02T16:05:04;20.80;59.80
3770;DHT22;1900;48.890;9.190;2022-11-02T16:07:30;20.70;59.70
3770;DHT22;1900;48.890;9.190;2022-11-02T16:10:20;20.70;59.70
3770;DHT22;1900;48.890;9.190;2022-11-02T16:12:54;20.60;59.50
3770;DHT22;1900;48.890;9.190;2022-11-02T16:15:20;20.50;59.50
3770;DHT22;1900;48.890;9.190;2022-11-02T16:17:49;20.40;59.40
3770;DHT22;1900;48.890;9.190;2022-11-02T16:20:27;20.40;59.40
3770;DHT22;1900;48.890;9.190;2022-11-02T16:27:48;20.20;59.40
3770;DHT22;1900;48.890;9.190;2022-11-02T16:30:21;20.10;59.40
3770;DHT22;1900;48.890;9.190;2022-11-02T16:32:52;20.10;59.30
3770;DHT22;1900;48.890;9.190;2022-11-02T16:35:18;20.00;59.80
3770;DHT22;1900;48.890;9.190;2022-11-02T16:37:48;20.00;59.30
3770;DHT22;1900;48.890;9.190;2022-11-02T16:40:16;19.90;59.20
3770;DHT22;1900;48.890;9.190;2022-11-02T16:42:45;19.90;59.20
3770;DHT22;1900;48.890;9.190;2022-11-02T16:45:32;19.80;59.10
3770;DHT22;1900;48.890;9.190;2022-11-02T16:47:58;19.80;59.10
3770;DHT22;1900;48.890;9.190;2022-11-02T16:50:25;19.70;59.10
3770;DHT22;1900;48.890;9.190;2022-11-02T16:52:59;19.70;59.10
3770;DHT22;1900;48.890;9.190;2022-11-02T16:55:41;19.60;59.10
3770;DHT22;1900;48.890;9.190;2022-11-02T16:58:13;19.50;59.00
3770;DHT22;1900;48.890;9.190;2022-11-02T17:00:57;19.50;58.90
3770;DHT22;1900;48.890;9.190;2022-11-02T17:03:28;19.40;58.80
3770;DHT22;1900;48.890;9.190;2022-11-02T17:05:55;19.30;58.80
3770;DHT22;1900;48.890;9.190;2022-11-02T17:08:33;19.30;58.80
3770;DHT22;1900;48.890;9.190;2022-11-02T17:11:01;19.30;58.80
3770;DHT22;1900;48.890;9.190;2022-11-02T17:13:34;19.20;58.80
3770;DHT22;1900;48.890;9.190;2022-11-02T17:16:19;19.20;58.80
3770;DHT22;1900;48.890;9.190;2022-11-02T17:18:44;19.10;58.70
3770;DHT22;1900;48.890;9.190;2022-11-02T17:21:26;19.00;58.60
3770;DHT22;1900;48.890;9.190;2022-11-02T17:23:52;19.00;58.60
3770;DHT22;1900;48.890;9.190;2022-11-02T17:31:32;18.80;58.60
3770;DHT22;1900;48.890;9.190;2022-11-02T17:34:09;18.80;58.60
3770;DHT22;1900;48.890;9.190;2022-11-02T17:36:42;18.80;58.80
3770;DHT22;1900;48.890;9.190;2022-11-02T17:39:11;18.70;58.60
3770;DHT22;1900;48.890;9.190;2022-11-02T17:41:37;18.70;58.60
3770;DHT22;1900;48.890;9.190;2022-11-02T17:44:21;18.70;58.60
3770;DHT22;1900;48.890;9.190;2022-11-02T17:46:47;18.60;58.50
3770;DHT22;1900;48.890;9.190;2022-11-02T17:49:13;18.60;58.60
3770;DHT22;1900;48.890;9.190;2022-11-02T17:51:38;18.60;58.60
3770;DHT22;1900;48.890;9.190;2022-11-02T17:54:05;18.50;58.50
3770;DHT22;1900;48.890;9.190;2022-11-02T17:56:31;18.50;58.50
3770;DHT22;1900;48.890;9.190;2022-11-02T17:58:57;18.50;58.50
3770;DHT22;1900;48.890;9.190;2022-11-02T18:01:23;18.40;58.40
3770;DHT22;1900;48.890;9.190;2022-11-02T18:03:49;18.40;58.40
3770;DHT22;1900;48.890;9.190;2022-11-02T18:06:14;18.40;58.40
3770;DHT22;1900;48.890;9.190;2022-11-02T18:08:43;18.30;58.40
3770;DHT22;1900;48.890;9.190;2022-11-02T18:11:27;18.30;58.40
3770;DHT22;1900;48.890;9.190;2022-11-02T18:13:53;18.30;58.40
3770;DHT22;1900;48.890;9.190;2022-11-02T18:16:18;18.20;58.30
3770;DHT22;1900;48.890;9.190;2022-11-02T18:18:44;18.20;58.90
3770;DHT22;1900;48.890;9.190;2022-11-02T18:21:10;18.20;58.40
3770;DHT22;1900;48.890;9.190;2022-11-02T18:23:38;18.10;58.30
3770;DHT22;1900;48.890;9.190;2022-11-02T18:26:05;18.10;58.30
3770;DHT22;1900;48.890;9.190;2022-11-02T18:28:31;18.10;58.30
3770;DHT22;1900;48.890;9.190;2022-11-02T18:30:56;18.00;58.20
3770;DHT22;1900;48.890;9.190;2022-11-02T18:33:22;18.00;58.20
3770;DHT22;1900;48.890;9.190;2022-11-02T18:35:48;18.00;58.20
3770;DHT22;1900;48.890;9.190;2022-11-02T18:38:13;17.90;58.10
3770;DHT22;1900;48.890;9.190;2022-11-02T18:40:39;17.90;58.10
3770;DHT22;1900;48.890;9.190;2022-11-02T18:43:05;17.80;58.00
3770;DHT22;1900;48.890;9.190;2022-11-02T18:45:30;17.80;58.00
3770;DHT22;1900;48.890;9.190;2022-11-02T18:47:56;17.80;58.00
3770;DHT22;1900;48.890;9.190;2022-11-02T18:50:22;17.70;57.90
3770;DHT22;1900;48.890;9.190;2022-11-02T18:52:49;17.70;57.90
3770;DHT22;1900;48.890;9.190;2022-11-02T18:55:15;17.60;57.80
3770;DHT22;1900;48.890;9.190;2022-11-02T18:57:43;17.60;57.90
3770;DHT22;1900;48.890;9.190;2022-11-02T19:00:09;17.60;57.90
3770;DHT22;1900;48.890;9.190;2022-11-02T19:02:37;17.50;57.80
3770;DHT22;1900;48.890;9.190;2022-11-02T19:05:03;17.40;57.70
3770;DHT22;1900;48.890;9.190;2022-11-02T19:07:29;17.40;57.70
3770;DHT22;1900;48.890;9.190;2022-11-02T19:10:13;17.40;57.70
3770;DHT22;1900;48.890;9.190;2022-11-02T19:12:39;17.30;57.60
3770;DHT22;1900;48.890;9.190;2022-11-02T19:15:05;17.30;57.70
3770;DHT22;1900;48.890;9.190;2022-11-02T19:17:31;17.20;57.60
3770;DHT22;1900;48.890;9.190;2022-11-02T19:19:56;17.10;57.50